createdAt,value
2018-01-14T00:00:07.013Z,23.20
2018-01-14T00:02:34.948Z,23.47
2018-01-14T00:05:02.863Z,25.48
2018-01-14T00:07:30.793Z,23.87
2018-01-14T00:09:58.720Z,22.48
2018-01-14T00:12:27.586Z,25.30
2018-01-14T00:14:55.496Z,27.17
2018-01-14T00:17:23.461Z,23.05
2018-01-14T00:19:51.556Z,22.80
2018-01-14T00:22:19.557Z,21.48
2018-01-14T00:24:47.482Z,26.05
2018-01-14T00:27:15.406Z,21.70
2018-01-14T00:29:43.792Z,21.65
2018-01-14T00:32:11.752Z,22.58
2018-01-14T00:34:39.652Z,21.37
2018-01-14T00:37:07.598Z,24.20
2018-01-14T00:39:35.513Z,21.77
2018-01-14T00:42:03.616Z,21.58
2018-01-14T00:44:31.622Z,18.60
2018-01-14T00:46:59.606Z,20.70
2018-01-14T00:49:27.552Z,18.57
2018-01-14T00:51:56.196Z,25.70
2018-01-14T00:54:24.109Z,20.75
2018-01-14T00:56:52.036Z,20.90
2018-01-14T00:59:20.004Z,22.97
2018-01-14T01:01:47.924Z,23.62
2018-01-14T01:04:15.865Z,19.80
2018-01-14T01:06:43.996Z,19.92
2018-01-14T01:09:11.924Z,21.90
2018-01-14T01:11:39.828Z,20.92
2018-01-14T01:14:07.820Z,18.48
2018-01-14T01:16:35.789Z,22.95
2018-01-14T01:19:03.702Z,21.65
2018-01-14T01:21:31.763Z,22.40
2018-01-14T01:23:59.675Z,23.60
2018-01-14T01:26:27.577Z,21.67
2018-01-14T01:28:55.515Z,19.75
2018-01-14T01:31:23.432Z,18.40
2018-01-14T01:33:51.399Z,23.15
2018-01-14T01:36:19.337Z,20.25
2018-01-14T01:38:47.257Z,18.75
2018-01-14T01:41:15.225Z,22.55
2018-01-14T01:43:43.201Z,20.17
2018-01-14T01:46:17.200Z,23.30
2018-01-14T01:48:45.158Z,18.90
2018-01-14T01:51:13.853Z,21.33
2018-01-14T01:53:41.838Z,23.87
2018-01-14T01:56:09.785Z,19.15
2018-01-14T01:58:37.718Z,19.27
2018-01-14T02:01:05.630Z,23.77
2018-01-14T02:03:33.571Z,21.85
2018-01-14T02:06:01.485Z,20.75
2018-01-14T02:08:29.412Z,21.50
2018-01-14T02:10:57.421Z,19.50
2018-01-14T02:13:25.351Z,20.47
2018-01-14T02:15:53.276Z,22.30
2018-01-14T02:18:21.222Z,23.20
2018-01-14T02:20:49.165Z,21.90
2018-01-14T02:23:17.096Z,22.95
2018-01-14T02:25:45.029Z,20.45
2018-01-14T02:28:12.949Z,25.48
2018-01-14T02:30:41.014Z,21.83
2018-01-14T02:33:09.035Z,21.75
2018-01-14T02:35:37.086Z,23.58
2018-01-14T02:38:05.045Z,24.75
2018-01-14T02:40:32.968Z,20.55
2018-01-14T02:43:00.939Z,23.92
2018-01-14T02:45:29.607Z,20.67
2018-01-14T02:47:57.656Z,25.62
2018-01-14T02:50:25.610Z,19.55
2018-01-14T02:52:53.606Z,20.27
2018-01-14T02:55:21.612Z,19.37
2018-01-14T02:57:49.544Z,21.95
2018-01-14T03:00:17.476Z,20.10
2018-01-14T03:02:45.409Z,20.80
2018-01-14T03:05:13.479Z,17.10
2018-01-14T03:07:42.071Z,19.77
2018-01-14T03:10:09.969Z,19.98
2018-01-14T03:12:37.919Z,22.17
2018-01-14T03:15:05.874Z,23.90
2018-01-14T03:17:33.915Z,18.25
2018-01-14T03:20:01.932Z,19.27
2018-01-14T03:22:29.848Z,19.83
2018-01-14T03:24:57.829Z,20.15
2018-01-14T03:27:25.823Z,22.10
2018-01-14T03:29:53.855Z,21.25
2018-01-14T03:32:21.836Z,20.40
2018-01-14T03:34:49.874Z,20.75
2018-01-14T03:37:17.857Z,18.92
2018-01-14T03:39:47.484Z,19.85
2018-01-14T03:42:15.509Z,17.57
2018-01-14T03:44:43.761Z,20.37
2018-01-14T03:47:11.865Z,17.33
2018-01-14T03:49:40.108Z,21.53
2018-01-14T03:52:08.519Z,23.40
2018-01-14T03:54:37.495Z,21.10
2018-01-14T03:57:05.450Z,18.42
2018-01-14T03:59:33.446Z,20.57
2018-01-14T04:02:01.357Z,18.40
2018-01-14T04:04:29.344Z,22.90
2018-01-14T04:06:57.337Z,20.60
2018-01-14T04:09:25.419Z,17.87
2018-01-14T04:11:53.439Z,19.10
2018-01-14T04:14:21.357Z,21.63
2018-01-14T04:16:49.285Z,22.60
2018-01-14T04:19:26.966Z,20.00
2018-01-14T04:21:54.925Z,22.45
2018-01-14T04:24:22.973Z,20.75
2018-01-14T04:26:50.906Z,21.73
2018-01-14T04:29:18.944Z,23.97
2018-01-14T04:31:46.913Z,21.17
2018-01-14T04:34:14.884Z,24.60
2018-01-14T04:36:42.818Z,18.37
2018-01-14T04:39:10.734Z,23.50
2018-01-14T04:41:38.674Z,21.20
2018-01-14T04:44:06.674Z,19.70
2018-01-14T04:46:34.605Z,23.87
2018-01-14T04:49:02.599Z,22.87
2018-01-14T04:51:30.554Z,18.73
2018-01-14T04:53:58.464Z,24.00
2018-01-14T04:56:26.377Z,22.00
2018-01-14T04:58:54.341Z,21.93
2018-01-14T05:01:22.260Z,23.90
2018-01-14T05:03:50.253Z,20.98
2018-01-14T05:06:18.264Z,23.53
2018-01-14T05:08:46.174Z,23.27
2018-01-14T05:11:14.168Z,26.05
2018-01-14T05:13:42.101Z,23.00
2018-01-14T05:16:10.031Z,24.00
2018-01-14T05:18:37.959Z,20.27
2018-01-14T05:21:05.888Z,25.10
2018-01-14T05:23:33.983Z,20.60
2018-01-14T05:26:02.937Z,22.77
2018-01-14T05:28:30.861Z,24.75
2018-01-14T05:30:58.816Z,24.80
2018-01-14T05:33:26.759Z,22.98
2018-01-14T05:35:54.693Z,24.80
2018-01-14T05:38:22.708Z,22.35
2018-01-14T05:40:50.625Z,24.48
2018-01-14T05:43:18.566Z,26.62
2018-01-14T05:45:46.571Z,22.60
2018-01-14T05:48:14.545Z,25.15
2018-01-14T05:50:42.476Z,26.40
2018-01-14T05:53:10.413Z,26.90
2018-01-14T05:55:38.349Z,23.42
2018-01-14T05:58:06.354Z,24.60
2018-01-14T06:00:34.305Z,29.10
2018-01-14T06:03:02.257Z,27.33
2018-01-14T06:05:30.195Z,26.87
2018-01-14T06:07:58.130Z,23.02
2018-01-14T06:10:26.062Z,23.87
2018-01-14T06:12:53.995Z,22.75
2018-01-14T06:15:21.920Z,23.98
2018-01-14T06:17:49.888Z,23.95
2018-01-14T06:20:17.821Z,25.10
2018-01-14T06:22:46.236Z,24.50
2018-01-14T06:25:14.153Z,24.05
2018-01-14T06:27:42.098Z,24.35
2018-01-14T06:30:10.024Z,28.70
2018-01-14T06:32:37.957Z,29.30
2018-01-14T06:35:05.889Z,24.65
2018-01-14T06:37:33.869Z,27.13
2018-01-14T06:40:01.801Z,31.70
2018-01-14T06:42:29.932Z,29.12
2018-01-14T06:44:57.947Z,30.50
2018-01-14T06:47:25.849Z,26.02
2018-01-14T06:49:53.769Z,26.02
2018-01-14T06:52:21.730Z,28.60
2018-01-14T06:54:49.659Z,26.05
2018-01-14T06:57:17.621Z,27.70
2018-01-14T06:59:45.558Z,24.40
2018-01-14T07:02:13.779Z,25.20
2018-01-14T07:04:42.017Z,24.77
2018-01-14T07:07:09.935Z,24.20
2018-01-14T07:09:37.869Z,25.27
2018-01-14T07:12:05.808Z,27.70
2018-01-14T07:14:33.745Z,29.42
2018-01-14T07:17:02.389Z,29.87
2018-01-14T07:19:30.320Z,26.58
2018-01-14T07:21:58.972Z,25.48
2018-01-14T07:24:27.056Z,26.73
2018-01-14T07:26:55.001Z,25.23
2018-01-14T07:29:22.921Z,25.90
2018-01-14T07:31:50.921Z,27.98
2018-01-14T07:34:18.850Z,23.77
2018-01-14T07:36:46.788Z,32.60
2018-01-14T07:39:14.693Z,26.48
2018-01-14T07:41:42.628Z,27.08
2018-01-14T07:44:10.673Z,26.98
2018-01-14T07:46:38.624Z,27.55
2018-01-14T07:49:06.555Z,29.67
2018-01-14T07:51:34.486Z,29.27
2018-01-14T07:54:02.424Z,27.15
2018-01-14T07:56:30.503Z,29.55
2018-01-14T07:58:59.296Z,30.60
2018-01-14T08:01:27.426Z,29.50
2018-01-14T08:03:55.369Z,26.48
2018-01-14T08:06:23.297Z,30.98
2018-01-14T08:08:51.232Z,31.30
2018-01-14T08:11:19.225Z,26.08
2018-01-14T08:13:47.188Z,26.92
2018-01-14T08:16:15.940Z,28.52
2018-01-14T08:18:43.870Z,30.80
2018-01-14T08:21:11.817Z,29.27
2018-01-14T08:23:39.975Z,25.62
2018-01-14T08:26:07.881Z,28.77
2018-01-14T08:28:35.861Z,30.92
2018-01-14T08:31:04.107Z,27.58
2018-01-14T08:33:32.136Z,27.30
2018-01-14T08:36:00.113Z,30.73
2018-01-14T08:38:28.025Z,30.95
2018-01-14T08:40:56.000Z,26.37
2018-01-14T08:43:24.021Z,31.52
2018-01-14T08:45:51.992Z,28.80
2018-01-14T08:48:19.919Z,29.67
2018-01-14T08:50:47.875Z,27.02
2018-01-14T08:53:15.799Z,27.73
2018-01-14T08:55:43.807Z,29.05
2018-01-14T08:58:11.745Z,29.20
2018-01-14T09:00:39.697Z,25.95
2018-01-14T09:03:07.657Z,34.22
2018-01-14T09:05:35.588Z,31.75
2018-01-14T09:08:03.521Z,33.33
2018-01-14T09:10:32.718Z,33.28
2018-01-14T09:13:01.312Z,30.58
2018-01-14T09:15:29.297Z,31.42
2018-01-14T09:17:57.237Z,32.53
2018-01-14T09:20:25.201Z,28.62
2018-01-14T09:22:53.143Z,30.62
2018-01-14T09:25:21.086Z,32.85
2018-01-14T09:27:49.408Z,31.50
2018-01-14T09:30:17.354Z,29.90
2018-01-14T09:32:45.326Z,26.42
2018-01-14T09:35:13.358Z,27.23
2018-01-14T09:37:41.388Z,27.52
2018-01-14T09:40:09.521Z,28.00
2018-01-14T09:42:37.509Z,32.13
2018-01-14T09:45:05.443Z,29.55
2018-01-14T09:47:33.368Z,27.77
2018-01-14T09:50:01.508Z,26.70
2018-01-14T09:52:29.467Z,27.65
2018-01-14T09:54:57.409Z,23.33
2018-01-14T09:57:25.482Z,23.90
2018-01-14T09:59:53.463Z,28.30
2018-01-14T10:02:21.464Z,23.67
2018-01-14T10:04:49.472Z,25.42
2018-01-14T10:07:17.420Z,26.23
2018-01-14T10:09:45.492Z,24.33
2018-01-14T10:12:13.401Z,25.42
2018-01-14T10:14:41.709Z,25.15
2018-01-14T10:17:09.665Z,24.20
2018-01-14T10:19:37.733Z,23.48
2018-01-14T10:22:05.702Z,23.17
2018-01-14T10:24:33.976Z,23.95
2018-01-14T10:27:02.076Z,28.05
2018-01-14T10:29:30.037Z,27.30
2018-01-14T10:31:57.998Z,27.42
2018-01-14T10:34:25.916Z,26.35
2018-01-14T10:36:53.989Z,22.00
2018-01-14T10:39:21.950Z,24.35
2018-01-14T10:41:50.134Z,23.40
2018-01-14T10:44:18.214Z,23.73
2018-01-14T10:46:46.984Z,24.20
2018-01-14T10:49:15.087Z,23.60
2018-01-14T10:51:43.009Z,25.12
2018-01-14T10:54:10.976Z,22.85
2018-01-14T10:56:39.213Z,25.40
2018-01-14T10:59:07.272Z,24.45
2018-01-14T11:01:35.250Z,22.75
2018-01-14T11:04:03.281Z,25.95
2018-01-14T11:06:31.207Z,24.80
2018-01-14T11:08:59.194Z,25.98
2018-01-14T11:11:27.262Z,28.90
2018-01-14T11:13:55.261Z,25.80
2018-01-14T11:16:24.152Z,30.10
2018-01-14T11:18:52.070Z,26.48
2018-01-14T11:21:20.250Z,26.05
2018-01-14T11:23:48.221Z,26.20
2018-01-14T11:26:16.344Z,26.80
2018-01-14T11:28:44.295Z,27.37
2018-01-14T11:31:12.319Z,26.25
2018-01-14T11:33:40.250Z,23.98
2018-01-14T11:36:08.222Z,23.80
2018-01-14T11:38:36.154Z,25.73
2018-01-14T11:41:04.082Z,22.83
2018-01-14T11:43:32.024Z,26.73
2018-01-14T11:45:59.998Z,27.33
2018-01-14T11:48:27.910Z,20.33
2018-01-14T11:50:56.003Z,27.58
2018-01-14T11:53:23.960Z,22.52
2018-01-14T11:55:52.035Z,24.27
2018-01-14T11:58:20.024Z,27.95
2018-01-14T12:00:48.053Z,22.23
2018-01-14T12:03:15.993Z,26.12
2018-01-14T12:05:43.915Z,25.62
2018-01-14T12:08:11.846Z,25.55
2018-01-14T12:10:39.796Z,24.02
2018-01-14T12:13:07.720Z,25.10
2018-01-14T12:15:35.641Z,22.20
2018-01-14T12:18:03.624Z,24.45
2018-01-14T12:20:31.533Z,22.45
2018-01-14T12:22:59.475Z,25.30
2018-01-14T12:25:27.437Z,26.10
2018-01-14T12:27:55.370Z,26.12
2018-01-14T12:30:23.301Z,23.65
2018-01-14T12:33:01.137Z,24.95
2018-01-14T12:35:29.167Z,27.00
2018-01-14T12:37:57.384Z,31.45
2018-01-14T12:40:25.313Z,28.60
2018-01-14T12:42:53.269Z,24.90
2018-01-14T12:45:21.196Z,29.63
2018-01-14T12:47:49.138Z,23.87
2018-01-14T12:50:17.068Z,25.02
2018-01-14T12:52:45.003Z,24.55
2018-01-14T12:55:12.933Z,22.02
2018-01-14T12:57:40.897Z,24.58
2018-01-14T13:00:08.874Z,26.30
2018-01-14T13:02:36.817Z,24.33
2018-01-14T13:05:05.663Z,25.75
2018-01-14T13:07:36.396Z,24.40
2018-01-14T13:10:04.414Z,22.52
2018-01-14T13:12:32.353Z,23.75
2018-01-14T13:15:00.711Z,22.27
2018-01-14T13:17:28.649Z,27.70
2018-01-14T13:19:56.600Z,25.45
2018-01-14T13:22:24.594Z,26.20
2018-01-14T13:24:52.586Z,26.37
2018-01-14T13:27:20.509Z,27.45
2018-01-14T13:29:48.741Z,30.02
2018-01-14T13:32:17.704Z,24.50
2018-01-14T13:34:45.694Z,28.50
2018-01-14T13:37:14.194Z,25.15
2018-01-14T13:39:42.118Z,24.17
2018-01-14T13:42:10.126Z,29.37
2018-01-14T13:44:38.046Z,27.85
2018-01-14T13:47:06.025Z,21.92
2018-01-14T13:49:33.968Z,24.87
2018-01-14T13:52:01.947Z,27.50
2018-01-14T13:54:29.887Z,28.48
2018-01-14T13:56:57.923Z,26.65
2018-01-14T13:59:26.009Z,27.05
2018-01-14T14:01:53.937Z,27.37
2018-01-14T14:04:21.890Z,24.50
2018-01-14T14:06:49.858Z,26.62
2018-01-14T14:09:17.813Z,28.70
2018-01-14T14:11:45.757Z,28.05
2018-01-14T14:14:13.749Z,28.58
2018-01-14T14:16:41.779Z,29.50
2018-01-14T14:19:09.768Z,28.58
2018-01-14T14:21:37.697Z,30.62
2018-01-14T14:24:06.534Z,27.42
2018-01-14T14:26:34.479Z,27.58
2018-01-14T14:29:02.394Z,27.48
2018-01-14T14:31:30.320Z,28.20
2018-01-14T14:33:58.435Z,27.35
2018-01-14T14:36:27.185Z,27.33
2018-01-14T14:38:55.126Z,25.73
2018-01-14T14:41:23.061Z,27.85
2018-01-14T14:43:51.048Z,29.02
2018-01-14T14:46:19.135Z,25.52
2018-01-14T14:48:47.150Z,28.55
2018-01-14T14:51:15.094Z,26.55
2018-01-14T14:53:43.120Z,27.80
2018-01-14T14:56:11.045Z,29.37
2018-01-14T14:58:39.021Z,28.42
2018-01-14T15:01:06.942Z,25.25
2018-01-14T15:03:34.872Z,25.50
2018-01-14T15:06:02.813Z,24.90
2018-01-14T15:08:30.755Z,26.15
2018-01-14T15:10:58.718Z,27.95
2018-01-14T15:13:26.690Z,25.85
2018-01-14T15:15:54.633Z,27.75
2018-01-14T15:18:22.673Z,28.52
2018-01-14T15:20:50.601Z,23.87
2018-01-14T15:23:18.577Z,27.23
2018-01-14T15:25:46.638Z,23.20
2018-01-14T15:28:14.691Z,24.37
2018-01-14T15:30:45.556Z,28.27
2018-01-14T15:33:13.945Z,26.73
2018-01-14T15:35:41.952Z,25.17
2018-01-14T15:38:09.922Z,25.70
2018-01-14T15:40:37.981Z,25.90
2018-01-14T15:43:05.916Z,34.53
2018-01-14T15:45:33.853Z,28.73
2018-01-14T15:48:01.760Z,28.95
2018-01-14T15:50:29.707Z,28.10
2018-01-14T15:52:57.637Z,30.05
2018-01-14T15:55:25.765Z,27.10
2018-01-14T15:57:53.743Z,26.15
2018-01-14T16:00:21.659Z,28.48
2018-01-14T16:02:49.641Z,24.58
2018-01-14T16:05:17.876Z,29.12
2018-01-14T16:07:45.886Z,29.83
2018-01-14T16:10:13.925Z,26.75
2018-01-14T16:12:41.836Z,32.25
2018-01-14T16:15:09.827Z,26.98
2018-01-14T16:17:37.726Z,27.65
2018-01-14T16:20:05.668Z,32.28
2018-01-14T16:22:33.640Z,27.35
2018-01-14T16:25:01.728Z,29.00
2018-01-14T16:27:29.784Z,28.05
2018-01-14T16:29:57.814Z,27.08
2018-01-14T16:32:26.066Z,30.70
2018-01-14T16:34:54.073Z,32.45
2018-01-14T16:37:22.045Z,26.08
2018-01-14T16:39:50.069Z,26.17
2018-01-14T16:42:18.063Z,30.23
2018-01-14T16:44:46.012Z,27.67
2018-01-14T16:47:14.921Z,28.85
2018-01-14T16:49:43.122Z,28.08
2018-01-14T16:52:11.120Z,28.10
2018-01-14T16:54:39.228Z,30.15
2018-01-14T16:57:07.203Z,28.73
2018-01-14T16:59:35.162Z,28.48
2018-01-14T17:02:03.126Z,29.02
2018-01-14T17:04:31.147Z,28.25
2018-01-14T17:06:59.111Z,25.37
2018-01-14T17:09:27.114Z,27.77
2018-01-14T17:11:55.017Z,28.40
2018-01-14T17:14:23.125Z,30.20
2018-01-14T17:16:52.077Z,26.98
2018-01-14T17:19:20.014Z,26.85
2018-01-14T17:21:47.989Z,24.52
2018-01-14T17:24:15.945Z,30.30
2018-01-14T17:26:43.885Z,26.98
2018-01-14T17:29:11.881Z,34.13
2018-01-14T17:31:40.090Z,27.52
2018-01-14T17:34:08.092Z,30.05
2018-01-14T17:36:36.097Z,27.27
2018-01-14T17:39:04.105Z,29.15
2018-01-14T17:41:32.033Z,27.73
2018-01-14T17:44:00.342Z,27.65
2018-01-14T17:46:28.307Z,25.52
2018-01-14T17:48:56.407Z,27.98
2018-01-14T17:51:24.373Z,28.50
2018-01-14T17:53:52.394Z,25.08
2018-01-14T17:56:20.389Z,29.30
2018-01-14T17:58:48.438Z,27.58
2018-01-14T18:01:16.378Z,28.92
2018-01-14T18:03:44.325Z,33.55
2018-01-14T18:06:12.312Z,30.12
2018-01-14T18:08:40.285Z,28.87
2018-01-14T18:11:08.241Z,34.60
2018-01-14T18:13:36.171Z,36.42
2018-01-14T18:16:04.120Z,29.75
2018-01-14T18:18:32.068Z,30.42
2018-01-14T18:20:59.979Z,34.38
2018-01-14T18:23:27.957Z,32.03
2018-01-14T18:25:55.906Z,33.97
2018-01-14T18:28:23.971Z,30.08
2018-01-14T18:30:52.005Z,33.92
2018-01-14T18:33:20.069Z,31.37
2018-01-14T18:35:48.334Z,31.05
2018-01-14T18:38:16.366Z,34.60
2018-01-14T18:40:44.296Z,32.88
2018-01-14T18:43:12.218Z,30.92
2018-01-14T18:45:52.009Z,35.42
2018-01-14T18:48:19.966Z,34.17
2018-01-14T18:50:47.887Z,36.30
2018-01-14T18:53:21.449Z,31.85
2018-01-14T18:55:49.377Z,36.13
2018-01-14T18:58:17.350Z,32.40
2018-01-14T19:00:45.277Z,30.95
2018-01-14T19:03:13.330Z,28.85
2018-01-14T19:05:41.289Z,31.17
2018-01-14T19:08:10.115Z,36.63
2018-01-14T19:10:38.049Z,37.75
2018-01-14T19:13:06.100Z,30.50
2018-01-14T19:15:34.039Z,29.60
2018-01-14T19:18:02.065Z,33.70
2018-01-14T19:20:29.988Z,30.80
2018-01-14T19:22:57.916Z,28.27
2018-01-14T19:25:25.892Z,29.15
2018-01-14T19:27:53.993Z,28.60
2018-01-14T19:30:21.986Z,28.35
2018-01-14T19:32:49.928Z,27.58
2018-01-14T19:35:17.873Z,31.45
2018-01-14T19:37:45.875Z,31.10
2018-01-14T19:40:13.765Z,33.58
2018-01-14T19:42:41.728Z,29.17
2018-01-14T19:45:09.652Z,29.58
2018-01-14T19:47:37.624Z,31.40
2018-01-14T19:50:05.691Z,31.37
2018-01-14T19:52:33.643Z,29.37
2018-01-14T19:55:01.660Z,30.55
2018-01-14T19:57:29.597Z,34.80
2018-01-14T19:59:57.519Z,28.40
2018-01-14T20:02:25.494Z,31.70
2018-01-14T20:04:53.433Z,30.33
2018-01-14T20:07:21.631Z,29.33
2018-01-14T20:09:49.550Z,34.40
2018-01-14T20:12:17.516Z,30.17
2018-01-14T20:14:45.529Z,29.05
2018-01-14T20:17:13.460Z,26.70
2018-01-14T20:19:41.390Z,34.83
2018-01-14T20:22:09.371Z,32.72
2018-01-14T20:24:37.313Z,30.95
2018-01-14T20:27:05.473Z,31.27
2018-01-14T20:29:33.409Z,29.15
2018-01-14T20:32:01.357Z,28.48
2018-01-14T20:34:29.358Z,29.58
2018-01-14T20:36:57.311Z,34.75
2018-01-14T20:39:25.242Z,33.58
2018-01-14T20:41:53.189Z,30.02
2018-01-14T20:44:26.879Z,30.50
2018-01-14T20:46:54.904Z,31.73
2018-01-14T20:49:23.002Z,32.15
2018-01-14T20:51:50.964Z,40.95
2018-01-14T20:54:18.882Z,29.90
2018-01-14T20:56:46.844Z,26.85
2018-01-14T20:59:14.789Z,30.67
2018-01-14T21:01:42.751Z,28.70
2018-01-14T21:04:10.711Z,33.67
2018-01-14T21:06:38.748Z,33.67
2018-01-14T21:09:06.702Z,32.15
2018-01-14T21:11:34.719Z,41.17
2018-01-14T21:14:02.666Z,28.70
2018-01-14T21:16:30.610Z,33.38
2018-01-14T21:18:58.572Z,34.00
2018-01-14T21:21:26.677Z,33.80
2018-01-14T21:23:54.542Z,30.70
2018-01-14T21:26:22.515Z,30.48
2018-01-14T21:28:50.463Z,34.35
2018-01-14T21:31:18.428Z,31.83
2018-01-14T21:33:46.508Z,28.90
2018-01-14T21:36:14.563Z,32.78
2018-01-14T21:38:42.494Z,31.75
2018-01-14T21:41:10.458Z,28.95
2018-01-14T21:43:38.554Z,29.83
2018-01-14T21:46:06.516Z,30.08
2018-01-14T21:48:34.443Z,28.67
2018-01-14T21:51:02.366Z,28.48
2018-01-14T21:53:30.376Z,29.92
2018-01-14T21:55:58.303Z,30.73
2018-01-14T21:58:26.241Z,29.67
2018-01-14T22:00:54.186Z,33.03
2018-01-14T22:03:22.897Z,30.83
2018-01-14T22:05:50.996Z,30.73
2018-01-14T22:08:18.936Z,30.08
2018-01-14T22:10:46.861Z,28.95
2018-01-14T22:13:14.874Z,30.35
2018-01-14T22:15:42.785Z,31.80
2018-01-14T22:18:10.713Z,30.27
2018-01-14T22:20:38.644Z,32.95
2018-01-14T22:23:06.812Z,29.25
2018-01-14T22:25:34.812Z,32.75
2018-01-14T22:28:02.729Z,31.30
2018-01-14T22:30:30.641Z,30.70
2018-01-14T22:32:58.647Z,32.25
2018-01-14T22:35:26.631Z,28.92
2018-01-14T22:37:54.595Z,34.53
2018-01-14T22:40:22.455Z,34.72
2018-01-14T22:42:50.402Z,30.73
2018-01-14T22:45:18.342Z,30.55
2018-01-14T22:47:46.265Z,31.77
2018-01-14T22:50:14.196Z,30.88
2018-01-14T22:52:42.175Z,30.88
2018-01-14T22:55:10.093Z,29.63
2018-01-14T22:57:38.033Z,31.40
2018-01-14T23:00:05.949Z,32.65
2018-01-14T23:02:33.873Z,31.62
2018-01-14T23:05:01.893Z,31.02
2018-01-14T23:07:29.830Z,29.12
2018-01-14T23:09:57.761Z,28.38
2018-01-14T23:12:25.707Z,27.48
2018-01-14T23:14:59.178Z,33.05
2018-01-14T23:17:27.267Z,28.92
2018-01-14T23:19:55.239Z,31.17
2018-01-14T23:22:23.161Z,31.75
2018-01-14T23:24:51.106Z,29.33
2018-01-14T23:27:19.244Z,28.90
2018-01-14T23:29:47.257Z,27.17
2018-01-14T23:32:15.221Z,26.58
2018-01-14T23:34:43.152Z,30.65
2018-01-14T23:37:11.092Z,28.87
2018-01-14T23:39:39.101Z,30.62
2018-01-14T23:42:07.025Z,28.05
2018-01-14T23:44:34.991Z,31.60
2018-01-14T23:47:03.013Z,31.58
2018-01-14T23:49:31.137Z,32.42
2018-01-14T23:51:59.261Z,29.80
2018-01-14T23:54:28.059Z,28.45
2018-01-14T23:56:56.161Z,30.05
2018-01-14T23:59:24.111Z,30.73
